CheckWX is a tool to help pilots better visualize weather data.  It is not intended as a substitute for an official pre-flight weather briefing.

13:52:18 UTC

KMCC METAR
Mc Clellan Airfield Airport
Sacramento, California, USA
Current

12 mins ago

KMCC 211340Z AUTO 00000KT 10SM CLR 12/09 A2996 RMK AO2
Observed
Sep-21 @ 13:40 UTC
Visibility
10 SM
Flight Rules
VFR
Cloud Levels
  • Clear skies
Temperature
12°C / 54°F
Dewpoint
C / 48°F
Humidity
82%
Altimeter
29.96" Hg
Pressure
1014.52 hPa
Previous

32 mins ago

KMCC 211320Z AUTO 28003KT 10SM CLR 12/09 A2996 RMK AO2
Observed
Sep-21 @ 13:20 UTC
Wind
  • 280° at 3 KTS
Visibility
10 SM
Flight Rules
VFR
Cloud Levels
  • Clear skies
Temperature
12°C / 54°F
Dewpoint
C / 48°F
Humidity
82%
Altimeter
29.96" Hg
Pressure
1014.52 hPa
Previous

1 hour ago

KMCC 211240Z AUTO 00000KT 10SM CLR 13/09 A2995 RMK AO2
Observed
Sep-21 @ 12:40 UTC
Visibility
10 SM
Flight Rules
VFR
Cloud Levels
  • Clear skies
Temperature
13°C / 55°F
Dewpoint
C / 48°F
Humidity
77%
Altimeter
29.95" Hg
Pressure
1014.22 hPa